sensor_id;sensor_type;location;lat;lon;timestamp;temperature;humidity
21019;DHT22;10667;51.056;3.732;2022-10-16T00:01:36;16.20;99.90
21019;DHT22;10667;51.056;3.732;2022-10-16T00:04:02;16.10;99.90
21019;DHT22;10667;51.056;3.732;2022-10-16T00:06:30;16.00;99.90
21019;DHT22;10667;51.056;3.732;2022-10-16T00:08:56;15.90;99.90
21019;DHT22;10667;51.056;3.732;2022-10-16T00:11:25;15.70;99.90
21019;DHT22;10667;51.056;3.732;2022-10-16T00:13:54;15.60;99.90
21019;DHT22;10667;51.056;3.732;2022-10-16T00:16:20;15.60;99.90
21019;DHT22;10667;51.056;3.732;2022-10-16T00:18:46;15.70;99.90
21019;DHT22;10667;51.056;3.732;2022-10-16T00:21:15;15.80;99.90
21019;DHT22;10667;51.056;3.732;2022-10-16T00:23:41;15.60;99.90
21019;DHT22;10667;51.056;3.732;2022-10-16T00:26:10;15.60;99.90
21019;DHT22;10667;51.056;3.732;2022-10-16T00:28:36;15.60;99.90
21019;DHT22;10667;51.056;3.732;2022-10-16T00:31:10;15.60;99.90
21019;DHT22;10667;51.056;3.732;2022-10-16T00:33:37;15.70;99.90
21019;DHT22;10667;51.056;3.732;2022-10-16T00:36:06;15.70;99.90
21019;DHT22;10667;51.056;3.732;2022-10-16T00:38:32;15.60;99.90
21019;DHT22;10667;51.056;3.732;2022-10-16T00:40:58;15.70;99.90
21019;DHT22;10667;51.056;3.732;2022-10-16T00:46:02;15.80;99.90
21019;DHT22;10667;51.056;3.732;2022-10-16T00:48:29;15.60;99.90
21019;DHT22;10667;51.056;3.732;2022-10-16T00:50:56;15.60;99.90
21019;DHT22;10667;51.056;3.732;2022-10-16T00:53:23;15.60;99.90
21019;DHT22;10667;51.056;3.732;2022-10-16T00:55:49;15.60;99.90
21019;DHT22;10667;51.056;3.732;2022-10-16T00:58:15;15.70;99.90
21019;DHT22;10667;51.056;3.732;2022-10-16T01:00:41;15.70;99.90
21019;DHT22;10667;51.056;3.732;2022-10-16T01:05:58;15.70;99.90
21019;DHT22;10667;51.056;3.732;2022-10-16T01:11:33;15.70;99.90
21019;DHT22;10667;51.056;3.732;2022-10-16T01:14:06;15.50;99.90
21019;DHT22;10667;51.056;3.732;2022-10-16T01:16:40;15.40;99.90
21019;DHT22;10667;51.056;3.732;2022-10-16T01:22:00;15.50;99.90
21019;DHT22;10667;51.056;3.732;2022-10-16T01:24:39;15.50;99.90
21019;DHT22;10667;51.056;3.732;2022-10-16T01:29:56;15.40;99.90
21019;DHT22;10667;51.056;3.732;2022-10-16T01:32:40;15.30;99.90
21019;DHT22;10667;51.056;3.732;2022-10-16T01:35:14;15.30;99.90
21019;DHT22;10667;51.056;3.732;2022-10-16T01:37:48;15.40;99.90
21019;DHT22;10667;51.056;3.732;2022-10-16T01:40:18;15.20;99.90
21019;DHT22;10667;51.056;3.732;2022-10-16T01:42:52;15.20;99.90
21019;DHT22;10667;51.056;3.732;2022-10-16T01:45:21;15.30;99.90
21019;DHT22;10667;51.056;3.732;2022-10-16T01:47:48;15.30;99.90
21019;DHT22;10667;51.056;3.732;2022-10-16T01:50:16;15.40;99.90
21019;DHT22;10667;51.056;3.732;2022-10-16T01:52:46;15.40;99.90
21019;DHT22;10667;51.056;3.732;2022-10-16T01:55:20;15.40;99.90
21019;DHT22;10667;51.056;3.732;2022-10-16T01:57:49;15.40;99.90
21019;DHT22;10667;51.056;3.732;2022-10-16T02:00:17;15.30;99.90
21019;DHT22;10667;51.056;3.732;2022-10-16T02:02:47;15.20;99.90
21019;DHT22;10667;51.056;3.732;2022-10-16T02:05:34;15.20;99.90
21019;DHT22;10667;51.056;3.732;2022-10-16T02:08:02;15.20;99.90
21019;DHT22;10667;51.056;3.732;2022-10-16T02:10:28;15.20;99.90
21019;DHT22;10667;51.056;3.732;2022-10-16T02:13:18;15.30;99.90
21019;DHT22;10667;51.056;3.732;2022-10-16T02:15:47;15.30;99.90
21019;DHT22;10667;51.056;3.732;2022-10-16T02:18:13;15.30;99.90
21019;DHT22;10667;51.056;3.732;2022-10-16T02:21:01;15.40;99.90
21019;DHT22;10667;51.056;3.732;2022-10-16T02:27:01;15.40;99.90
21019;DHT22;10667;51.056;3.732;2022-10-16T02:29:28;15.50;99.90
21019;DHT22;10667;51.056;3.732;2022-10-16T02:32:04;15.50;99.90
21019;DHT22;10667;51.056;3.732;2022-10-16T02:34:32;15.50;99.90
21019;DHT22;10667;51.056;3.732;2022-10-16T02:37:00;15.40;99.90
21019;DHT22;10667;51.056;3.732;2022-10-16T02:39:28;15.50;99.90
21019;DHT22;10667;51.056;3.732;2022-10-16T02:41:54;15.40;99.90
21019;DHT22;10667;51.056;3.732;2022-10-16T02:44:20;15.20;99.90
21019;DHT22;10667;51.056;3.732;2022-10-16T02:46:45;15.30;99.90
21019;DHT22;10667;51.056;3.732;2022-10-16T02:49:11;15.30;99.90
21019;DHT22;10667;51.056;3.732;2022-10-16T02:51:37;15.40;99.90
21019;DHT22;10667;51.056;3.732;2022-10-16T02:54:02;15.40;99.90
21019;DHT22;10667;51.056;3.732;2022-10-16T02:56:28;15.30;99.90
21019;DHT22;10667;51.056;3.732;2022-10-16T02:58:55;15.30;99.90
21019;DHT22;10667;51.056;3.732;2022-10-16T03:01:21;15.30;99.90
21019;DHT22;10667;51.056;3.732;2022-10-16T03:03:47;15.40;99.90
21019;DHT22;10667;51.056;3.732;2022-10-16T03:06:12;15.50;99.90
21019;DHT22;10667;51.056;3.732;2022-10-16T03:08:38;15.40;99.90
21019;DHT22;10667;51.056;3.732;2022-10-16T03:11:04;15.50;99.90
21019;DHT22;10667;51.056;3.732;2022-10-16T03:13:30;15.40;99.90
21019;DHT22;10667;51.056;3.732;2022-10-16T03:15:56;15.30;99.90
21019;DHT22;10667;51.056;3.732;2022-10-16T03:18:21;15.20;99.90
21019;DHT22;10667;51.056;3.732;2022-10-16T03:20:47;15.20;99.90
21019;DHT22;10667;51.056;3.732;2022-10-16T03:23:13;15.30;99.90
21019;DHT22;10667;51.056;3.732;2022-10-16T03:25:38;15.30;99.90
21019;DHT22;10667;51.056;3.732;2022-10-16T03:28:04;15.30;99.90
21019;DHT22;10667;51.056;3.732;2022-10-16T03:30:30;15.30;99.90
21019;DHT22;10667;51.056;3.732;2022-10-16T03:32:56;15.20;99.90
21019;DHT22;10667;51.056;3.732;2022-10-16T03:35:22;15.20;99.90
21019;DHT22;10667;51.056;3.732;2022-10-16T03:37:48;15.20;99.90
21019;DHT22;10667;51.056;3.732;2022-10-16T03:40:14;15.10;99.90
21019;DHT22;10667;51.056;3.732;2022-10-16T03:42:41;15.00;99.90
21019;DHT22;10667;51.056;3.732;2022-10-16T03:45:07;15.00;99.90
21019;DHT22;10667;51.056;3.732;2022-10-16T03:47:33;15.10;99.90
21019;DHT22;10667;51.056;3.732;2022-10-16T03:49:59;15.10;99.90
21019;DHT22;10667;51.056;3.732;2022-10-16T03:52:25;15.00;99.90
21019;DHT22;10667;51.056;3.732;2022-10-16T03:54:51;14.90;99.90
21019;DHT22;10667;51.056;3.732;2022-10-16T03:57:17;14.90;99.90
21019;DHT22;10667;51.056;3.732;2022-10-16T03:59:43;14.90;99.90
21019;DHT22;10667;51.056;3.732;2022-10-16T04:02:09;14.90;99.90
21019;DHT22;10667;51.056;3.732;2022-10-16T04:04:34;14.90;99.90
21019;DHT22;10667;51.056;3.732;2022-10-16T04:07:00;14.90;99.90
21019;DHT22;10667;51.056;3.732;2022-10-16T04:09:26;15.00;99.90
21019;DHT22;10667;51.056;3.732;2022-10-16T04:11:51;15.00;99.90
21019;DHT22;10667;51.056;3.732;2022-10-16T04:14:17;14.90;99.90
21019;DHT22;10667;51.056;3.732;2022-10-16T04:16:43;15.00;99.90
21019;DHT22;10667;51.056;3.732;2022-10-16T04:19:09;14.80;99.90
21019;DHT22;10667;51.056;3.732;2022-10-16T04:21:36;14.80;99.90
21019;DHT22;10667;51.056;3.732;2022-10-16T04:24:02;14.80;99.90
21019;DHT22;10667;51.056;3.732;2022-10-16T04:26:27;14.80;99.90
21019;DHT22;10667;51.056;3.732;2022-10-16T04:28:53;14.80;99.90
21019;DHT22;10667;51.056;3.732;2022-10-16T04:31:19;14.90;99.90
21019;DHT22;10667;51.056;3.732;2022-10-16T04:33:45;14.80;99.90
21019;DHT22;10667;51.056;3.732;2022-10-16T04:36:11;14.80;99.90
21019;DHT22;10667;51.056;3.732;2022-10-16T04:38:37;14.80;99.90
21019;DHT22;10667;51.056;3.732;2022-10-16T04:41:07;14.60;99.90
21019;DHT22;10667;51.056;3.732;2022-10-16T04:43:34;14.70;99.90
21019;DHT22;10667;51.056;3.732;2022-10-16T04:46:00;14.70;99.90
21019;DHT22;10667;51.056;3.732;2022-10-16T04:48:26;14.80;99.90
21019;DHT22;10667;51.056;3.732;2022-10-16T04:50:51;14.80;99.90
21019;DHT22;10667;51.056;3.732;2022-10-16T04:53:17;14.80;99.90
21019;DHT22;10667;51.056;3.732;2022-10-16T04:55:43;14.80;99.90
21019;DHT22;10667;51.056;3.732;2022-10-16T04:58:09;14.80;99.90
21019;DHT22;10667;51.056;3.732;2022-10-16T05:00:35;14.80;99.90
21019;DHT22;10667;51.056;3.732;2022-10-16T05:03:01;14.80;99.90
21019;DHT22;10667;51.056;3.732;2022-10-16T05:05:27;14.90;99.90
21019;DHT22;10667;51.056;3.732;2022-10-16T05:07:53;14.90;99.90
21019;DHT22;10667;51.056;3.732;2022-10-16T05:10:19;14.80;99.90
21019;DHT22;10667;51.056;3.732;2022-10-16T05:12:45;14.80;99.90
21019;DHT22;10667;51.056;3.732;2022-10-16T05:15:11;14.80;99.90
21019;DHT22;10667;51.056;3.732;2022-10-16T05:17:37;14.80;99.90
21019;DHT22;10667;51.056;3.732;2022-10-16T05:20:03;14.90;99.90
21019;DHT22;10667;51.056;3.732;2022-10-16T05:22:29;15.00;99.90
21019;DHT22;10667;51.056;3.732;2022-10-16T05:24:55;15.00;99.90
21019;DHT22;10667;51.056;3.732;2022-10-16T05:27:21;15.10;99.90
21019;DHT22;10667;51.056;3.732;2022-10-16T05:29:47;15.00;99.90
21019;DHT22;10667;51.056;3.732;2022-10-16T05:32:14;15.10;99.90
21019;DHT22;10667;51.056;3.732;2022-10-16T05:34:40;15.10;99.90
21019;DHT22;10667;51.056;3.732;2022-10-16T05:37:06;15.20;99.90
21019;DHT22;10667;51.056;3.732;2022-10-16T05:39:32;15.20;99.90
21019;DHT22;10667;51.056;3.732;2022-10-16T05:41:58;15.20;99.90
21019;DHT22;10667;51.056;3.732;2022-10-16T05:44:23;15.20;99.90
21019;DHT22;10667;51.056;3.732;2022-10-16T05:46:49;15.20;99.90
21019;DHT22;10667;51.056;3.732;2022-10-16T05:49:15;15.30;99.90
21019;DHT22;10667;51.056;3.732;2022-10-16T05:51:41;15.30;99.90
21019;DHT22;10667;51.056;3.732;2022-10-16T05:54:07;15.40;99.90
21019;DHT22;10667;51.056;3.732;2022-10-16T05:56:33;15.40;99.90
21019;DHT22;10667;51.056;3.732;2022-10-16T05:58:58;15.20;99.90
21019;DHT22;10667;51.056;3.732;2022-10-16T06:01:24;15.20;99.90
21019;DHT22;10667;51.056;3.732;2022-10-16T06:03:53;15.20;99.90
21019;DHT22;10667;51.056;3.732;2022-10-16T06:06:21;15.20;99.90
21019;DHT22;10667;51.056;3.732;2022-10-16T06:08:48;15.20;99.90
21019;DHT22;10667;51.056;3.732;2022-10-16T06:11:25;15.30;99.90
21019;DHT22;10667;51.056;3.732;2022-10-16T06:13:52;15.40;99.90
21019;DHT22;10667;51.056;3.732;2022-10-16T06:16:18;15.20;99.90
21019;DHT22;10667;51.056;3.732;2022-10-16T06:18:45;15.20;99.90
21019;DHT22;10667;51.056;3.732;2022-10-16T06:21:16;15.20;99.90
21019;DHT22;10667;51.056;3.732;2022-10-16T06:23:42;15.20;99.90
21019;DHT22;10667;51.056;3.732;2022-10-16T06:26:13;15.20;99.90
21019;DHT22;10667;51.056;3.732;2022-10-16T06:28:39;15.00;99.90
21019;DHT22;10667;51.056;3.732;2022-10-16T06:31:06;15.10;99.90
21019;DHT22;10667;51.056;3.732;2022-10-16T06:33:32;15.00;99.90
21019;DHT22;10667;51.056;3.732;2022-10-16T06:36:04;15.10;99.90
21019;DHT22;10667;51.056;3.732;2022-10-16T06:38:30;15.20;99.90
21019;DHT22;10667;51.056;3.732;2022-10-16T06:40:56;15.00;99.90
21019;DHT22;10667;51.056;3.732;2022-10-16T06:43:22;15.20;99.90
21019;DHT22;10667;51.056;3.732;2022-10-16T06:45:55;15.30;99.90
21019;DHT22;10667;51.056;3.732;2022-10-16T06:48:21;15.30;99.90
21019;DHT22;10667;51.056;3.732;2022-10-16T06:51:08;15.30;99.90
21019;DHT22;10667;51.056;3.732;2022-10-16T06:53:36;15.20;99.90
21019;DHT22;10667;51.056;3.732;2022-10-16T06:56:18;15.20;99.90
21019;DHT22;10667;51.056;3.732;2022-10-16T06:58:45;15.20;99.90
21019;DHT22;10667;51.056;3.732;2022-10-16T07:01:11;15.10;99.90
21019;DHT22;10667;51.056;3.732;2022-10-16T07:03:38;14.90;99.90
21019;DHT22;10667;51.056;3.732;2022-10-16T07:06:05;14.90;99.90
21019;DHT22;10667;51.056;3.732;2022-10-16T07:08:33;14.90;99.90
21019;DHT22;10667;51.056;3.732;2022-10-16T07:11:07;14.80;99.90
21019;DHT22;10667;51.056;3.732;2022-10-16T07:13:33;14.80;99.90
21019;DHT22;10667;51.056;3.732;2022-10-16T07:16:14;14.80;99.90
21019;DHT22;10667;51.056;3.732;2022-10-16T07:18:40;15.00;99.90
21019;DHT22;10667;51.056;3.732;2022-10-16T07:21:10;14.90;99.90
21019;DHT22;10667;51.056;3.732;2022-10-16T07:23:37;14.80;99.90
21019;DHT22;10667;51.056;3.732;2022-10-16T07:26:04;14.90;99.90
21019;DHT22;10667;51.056;3.732;2022-10-16T07:28:30;15.00;99.90
21019;DHT22;10667;51.056;3.732;2022-10-16T07:31:01;15.00;99.90
21019;DHT22;10667;51.056;3.732;2022-10-16T07:33:28;15.10;99.90
21019;DHT22;10667;51.056;3.732;2022-10-16T07:35:54;15.20;99.90
21019;DHT22;10667;51.056;3.732;2022-10-16T07:38:21;15.20;99.90
21019;DHT22;10667;51.056;3.732;2022-10-16T07:40:47;15.10;99.90
21019;DHT22;10667;51.056;3.732;2022-10-16T07:43:14;15.10;99.90
21019;DHT22;10667;51.056;3.732;2022-10-16T07:45:50;15.10;99.90
21019;DHT22;10667;51.056;3.732;2022-10-16T07:48:16;15.30;99.90
21019;DHT22;10667;51.056;3.732;2022-10-16T07:50:43;15.30;99.90
21019;DHT22;10667;51.056;3.732;2022-10-16T07:53:09;15.20;99.90
21019;DHT22;10667;51.056;3.732;2022-10-16T07:55:35;15.30;99.90
21019;DHT22;10667;51.056;3.732;2022-10-16T07:58:00;15.50;99.90
21019;DHT22;10667;51.056;3.732;2022-10-16T08:00:26;15.40;99.90
21019;DHT22;10667;51.056;3.732;2022-10-16T08:02:52;15.40;99.90
21019;DHT22;10667;51.056;3.732;2022-10-16T08:05:17;15.30;99.90
21019;DHT22;10667;51.056;3.732;2022-10-16T08:07:48;15.30;99.90
21019;DHT22;10667;51.056;3.732;2022-10-16T08:10:19;15.50;99.90
21019;DHT22;10667;51.056;3.732;2022-10-16T08:12:45;15.60;99.90
21019;DHT22;10667;51.056;3.732;2022-10-16T08:15:11;15.80;99.90
21019;DHT22;10667;51.056;3.732;2022-10-16T08:17:37;15.60;99.90
21019;DHT22;10667;51.056;3.732;2022-10-16T08:20:03;15.70;99.90
21019;DHT22;10667;51.056;3.732;2022-10-16T08:22:29;15.70;99.90
21019;DHT22;10667;51.056;3.732;2022-10-16T08:24:54;15.70;99.90
21019;DHT22;10667;51.056;3.732;2022-10-16T08:27:20;16.00;99.90
21019;DHT22;10667;51.056;3.732;2022-10-16T08:29:46;16.10;99.90
21019;DHT22;10667;51.056;3.732;2022-10-16T08:32:11;16.10;99.90
21019;DHT22;10667;51.056;3.732;2022-10-16T08:34:37;16.00;99.90
21019;DHT22;10667;51.056;3.732;2022-10-16T08:37:03;16.10;99.90
21019;DHT22;10667;51.056;3.732;2022-10-16T08:39:28;16.00;99.90
21019;DHT22;10667;51.056;3.732;2022-10-16T08:45:15;16.00;99.90
21019;DHT22;10667;51.056;3.732;2022-10-16T08:50:36;16.10;99.90
21019;DHT22;10667;51.056;3.732;2022-10-16T08:53:04;16.20;99.90
21019;DHT22;10667;51.056;3.732;2022-10-16T08:55:44;16.40;99.90
21019;DHT22;10667;51.056;3.732;2022-10-16T08:58:16;16.40;99.90
21019;DHT22;10667;51.056;3.732;2022-10-16T09:00:45;16.50;99.90
21019;DHT22;10667;51.056;3.732;2022-10-16T09:06:07;16.50;99.90
21019;DHT22;10667;51.056;3.732;2022-10-16T09:16:27;16.50;99.90
21019;DHT22;10667;51.056;3.732;2022-10-16T09:21:30;16.60;99.90
21019;DHT22;10667;51.056;3.732;2022-10-16T09:24:18;16.60;99.90
21019;DHT22;10667;51.056;3.732;2022-10-16T09:26:45;16.50;99.90
21019;DHT22;10667;51.056;3.732;2022-10-16T09:29:15;16.60;99.90
21019;DHT22;10667;51.056;3.732;2022-10-16T09:31:42;16.70;99.90
21019;DHT22;10667;51.056;3.732;2022-10-16T09:34:31;17.00;99.90
21019;DHT22;10667;51.056;3.732;2022-10-16T09:36:59;17.10;99.90
21019;DHT22;10667;51.056;3.732;2022-10-16T09:39:25;17.10;99.90
21019;DHT22;10667;51.056;3.732;2022-10-16T09:41:51;17.30;99.90
21019;DHT22;10667;51.056;3.732;2022-10-16T09:46:48;17.50;99.90
21019;DHT22;10667;51.056;3.732;2022-10-16T09:49:25;17.40;99.90
21019;DHT22;10667;51.056;3.732;2022-10-16T09:52:12;17.30;99.90
21019;DHT22;10667;51.056;3.732;2022-10-16T09:54:55;17.20;99.90
21019;DHT22;10667;51.056;3.732;2022-10-16T09:57:22;17.20;99.90
21019;DHT22;10667;51.056;3.732;2022-10-16T09:59:50;17.20;99.90
21019;DHT22;10667;51.056;3.732;2022-10-16T10:02:18;17.30;99.90
21019;DHT22;10667;51.056;3.732;2022-10-16T10:04:50;17.10;99.90
21019;DHT22;10667;51.056;3.732;2022-10-16T10:07:25;17.10;99.90
21019;DHT22;10667;51.056;3.732;2022-10-16T10:09:52;17.30;99.90
21019;DHT22;10667;51.056;3.732;2022-10-16T10:12:24;17.20;99.90
21019;DHT22;10667;51.056;3.732;2022-10-16T10:14:55;17.30;99.90
21019;DHT22;10667;51.056;3.732;2022-10-16T10:17:26;17.30;99.90
21019;DHT22;10667;51.056;3.732;2022-10-16T10:20:01;17.50;99.90
21019;DHT22;10667;51.056;3.732;2022-10-16T10:22:41;17.80;99.90
21019;DHT22;10667;51.056;3.732;2022-10-16T10:35:38;17.80;99.90
21019;DHT22;10667;51.056;3.732;2022-10-16T10:44:26;18.50;99.90
21019;DHT22;10667;51.056;3.732;2022-10-16T10:52:59;18.00;99.90
21019;DHT22;10667;51.056;3.732;2022-10-16T11:00:56;19.30;99.90
21019;DHT22;10667;51.056;3.732;2022-10-16T11:05:58;19.00;99.90
21019;DHT22;10667;51.056;3.732;2022-10-16T11:11:40;18.60;99.90
21019;DHT22;10667;51.056;3.732;2022-10-16T11:14:13;18.80;99.90
21019;DHT22;10667;51.056;3.732;2022-10-16T11:16:55;19.00;99.90
21019;DHT22;10667;51.056;3.732;2022-10-16T11:22:47;19.40;99.90
21019;DHT22;10667;51.056;3.732;2022-10-16T11:25:23;19.10;99.90
21019;DHT22;10667;51.056;3.732;2022-10-16T11:28:13;19.10;99.90
21019;DHT22;10667;51.056;3.732;2022-10-16T11:31:02;19.20;99.90
21019;DHT22;10667;51.056;3.732;2022-10-16T11:49:33;19.70;99.90
21019;DHT22;10667;51.056;3.732;2022-10-16T11:52:19;19.80;99.90
21019;DHT22;10667;51.056;3.732;2022-10-16T11:55:01;19.90;99.90
21019;DHT22;10667;51.056;3.732;2022-10-16T11:57:33;19.90;99.90
21019;DHT22;10667;51.056;3.732;2022-10-16T12:00:46;19.90;99.90
21019;DHT22;10667;51.056;3.732;2022-10-16T12:03:36;19.50;99.90
21019;DHT22;10667;51.056;3.732;2022-10-16T12:06:19;19.40;99.90
21019;DHT22;10667;51.056;3.732;2022-10-16T12:08:49;19.50;99.90
21019;DHT22;10667;51.056;3.732;2022-10-16T12:11:36;19.80;99.90
21019;DHT22;10667;51.056;3.732;2022-10-16T12:16:31;19.90;99.90
21019;DHT22;10667;51.056;3.732;2022-10-16T12:19:24;19.80;99.90
21019;DHT22;10667;51.056;3.732;2022-10-16T12:21:51;19.50;99.90
21019;DHT22;10667;51.056;3.732;2022-10-16T12:24:44;19.50;99.90
21019;DHT22;10667;51.056;3.732;2022-10-16T12:27:31;19.70;99.90
21019;DHT22;10667;51.056;3.732;2022-10-16T12:30:00;19.80;99.90
21019;DHT22;10667;51.056;3.732;2022-10-16T12:34:58;19.60;99.90
21019;DHT22;10667;51.056;3.732;2022-10-16T12:37:34;19.60;99.90
21019;DHT22;10667;51.056;3.732;2022-10-16T12:40:15;19.80;99.90
21019;DHT22;10667;51.056;3.732;2022-10-16T12:42:42;19.90;99.90
21019;DHT22;10667;51.056;3.732;2022-10-16T12:47:52;20.00;99.90
21019;DHT22;10667;51.056;3.732;2022-10-16T12:50:29;20.20;99.90
21019;DHT22;10667;51.056;3.732;2022-10-16T12:52:56;20.30;99.90
21019;DHT22;10667;51.056;3.732;2022-10-16T12:55:23;20.50;99.90
21019;DHT22;10667;51.056;3.732;2022-10-16T13:00:43;20.60;99.90
21019;DHT22;10667;51.056;3.732;2022-10-16T13:03:48;20.60;99.90
21019;DHT22;10667;51.056;3.732;2022-10-16T13:06:20;20.30;99.90
21019;DHT22;10667;51.056;3.732;2022-10-16T13:19:36;20.40;99.90
21019;DHT22;10667;51.056;3.732;2022-10-16T13:24:51;20.20;99.90
21019;DHT22;10667;51.056;3.732;2022-10-16T13:30:21;20.20;99.90
21019;DHT22;10667;51.056;3.732;2022-10-16T13:32:49;20.30;99.90
21019;DHT22;10667;51.056;3.732;2022-10-16T13:35:21;20.00;99.90
21019;DHT22;10667;51.056;3.732;2022-10-16T13:37:47;20.20;99.90
21019;DHT22;10667;51.056;3.732;2022-10-16T13:40:24;20.40;99.90
21019;DHT22;10667;51.056;3.732;2022-10-16T13:42:51;20.70;99.90
21019;DHT22;10667;51.056;3.732;2022-10-16T13:45:23;20.60;99.90
21019;DHT22;10667;51.056;3.732;2022-10-16T13:48:01;20.50;99.90
21019;DHT22;10667;51.056;3.732;2022-10-16T13:50:26;20.60;99.90
21019;DHT22;10667;51.056;3.732;2022-10-16T13:53:06;20.60;99.90
21019;DHT22;10667;51.056;3.732;2022-10-16T13:55:32;20.70;99.90
21019;DHT22;10667;51.056;3.732;2022-10-16T13:58:27;20.70;99.90
21019;DHT22;10667;51.056;3.732;2022-10-16T14:00:55;20.70;99.90
21019;DHT22;10667;51.056;3.732;2022-10-16T14:03:22;20.70;99.90
21019;DHT22;10667;51.056;3.732;2022-10-16T14:05:51;20.50;99.90
21019;DHT22;10667;51.056;3.732;2022-10-16T14:08:17;20.40;99.90
21019;DHT22;10667;51.056;3.732;2022-10-16T14:10:48;20.20;99.90
21019;DHT22;10667;51.056;3.732;2022-10-16T14:13:18;19.90;99.90
21019;DHT22;10667;51.056;3.732;2022-10-16T14:15:49;19.80;99.90
21019;DHT22;10667;51.056;3.732;2022-10-16T14:18:22;19.90;99.90
21019;DHT22;10667;51.056;3.732;2022-10-16T14:20:49;20.00;99.90
21019;DHT22;10667;51.056;3.732;2022-10-16T14:23:36;20.10;99.90
21019;DHT22;10667;51.056;3.732;2022-10-16T14:28:38;20.20;99.90
21019;DHT22;10667;51.056;3.732;2022-10-16T14:31:34;20.10;99.90
21019;DHT22;10667;51.056;3.732;2022-10-16T14:34:02;20.10;99.90
21019;DHT22;10667;51.056;3.732;2022-10-16T14:36:29;20.10;99.90
21019;DHT22;10667;51.056;3.732;2022-10-16T14:39:13;20.20;99.90
21019;DHT22;10667;51.056;3.732;2022-10-16T14:41:46;20.30;99.90
21019;DHT22;10667;51.056;3.732;2022-10-16T14:44:13;20.30;99.90
21019;DHT22;10667;51.056;3.732;2022-10-16T14:46:41;20.10;99.90
21019;DHT22;10667;51.056;3.732;2022-10-16T14:51:37;19.90;99.90
21019;DHT22;10667;51.056;3.732;2022-10-16T14:54:03;20.00;99.90
21019;DHT22;10667;51.056;3.732;2022-10-16T14:56:32;20.00;99.90
21019;DHT22;10667;51.056;3.732;2022-10-16T14:59:00;19.90;99.90
21019;DHT22;10667;51.056;3.732;2022-10-16T15:01:26;19.80;99.90
21019;DHT22;10667;51.056;3.732;2022-10-16T15:03:52;19.90;99.90
21019;DHT22;10667;51.056;3.732;2022-10-16T15:06:19;20.00;99.90
21019;DHT22;10667;51.056;3.732;2022-10-16T15:08:45;20.20;99.90
21019;DHT22;10667;51.056;3.732;2022-10-16T15:11:13;20.10;99.90
21019;DHT22;10667;51.056;3.732;2022-10-16T15:13:39;20.10;99.90
21019;DHT22;10667;51.056;3.732;2022-10-16T15:16:07;20.10;99.90
21019;DHT22;10667;51.056;3.732;2022-10-16T15:18:33;20.00;99.90
21019;DHT22;10667;51.056;3.732;2022-10-16T15:20:58;20.00;99.90
21019;DHT22;10667;51.056;3.732;2022-10-16T15:23:24;20.20;99.90
21019;DHT22;10667;51.056;3.732;2022-10-16T15:25:54;20.30;99.90
21019;DHT22;10667;51.056;3.732;2022-10-16T15:28:22;20.30;99.90
21019;DHT22;10667;51.056;3.732;2022-10-16T15:30:50;20.20;99.90
21019;DHT22;10667;51.056;3.732;2022-10-16T15:33:22;20.20;99.90
21019;DHT22;10667;51.056;3.732;2022-10-16T15:35:50;20.20;99.90
21019;DHT22;10667;51.056;3.732;2022-10-16T15:38:17;20.30;99.90
21019;DHT22;10667;51.056;3.732;2022-10-16T15:40:44;20.20;99.90
21019;DHT22;10667;51.056;3.732;2022-10-16T15:43:10;20.20;99.90
21019;DHT22;10667;51.056;3.732;2022-10-16T15:45:37;20.20;99.90
21019;DHT22;10667;51.056;3.732;2022-10-16T15:48:03;20.10;99.90
21019;DHT22;10667;51.056;3.732;2022-10-16T15:50:30;20.00;99.90
21019;DHT22;10667;51.056;3.732;2022-10-16T15:52:56;20.00;99.90
21019;DHT22;10667;51.056;3.732;2022-10-16T15:55:22;19.90;99.90
21019;DHT22;10667;51.056;3.732;2022-10-16T15:57:48;20.00;99.90
21019;DHT22;10667;51.056;3.732;2022-10-16T16:00:16;19.90;99.90
21019;DHT22;10667;51.056;3.732;2022-10-16T16:02:43;19.80;99.90
21019;DHT22;10667;51.056;3.732;2022-10-16T16:05:10;19.60;99.90
21019;DHT22;10667;51.056;3.732;2022-10-16T16:07:38;19.50;99.90
21019;DHT22;10667;51.056;3.732;2022-10-16T16:10:06;19.50;99.90
21019;DHT22;10667;51.056;3.732;2022-10-16T16:12:33;19.50;99.90
21019;DHT22;10667;51.056;3.732;2022-10-16T16:14:59;19.50;99.90
21019;DHT22;10667;51.056;3.732;2022-10-16T16:17:25;19.40;99.90
21019;DHT22;10667;51.056;3.732;2022-10-16T16:19:51;19.30;99.90
21019;DHT22;10667;51.056;3.732;2022-10-16T16:22:17;19.30;99.90
21019;DHT22;10667;51.056;3.732;2022-10-16T16:24:43;19.30;99.90
21019;DHT22;10667;51.056;3.732;2022-10-16T16:27:08;19.30;99.90
21019;DHT22;10667;51.056;3.732;2022-10-16T16:29:34;19.30;99.90
21019;DHT22;10667;51.056;3.732;2022-10-16T16:32:00;19.20;99.90
21019;DHT22;10667;51.056;3.732;2022-10-16T16:34:27;19.20;99.90
21019;DHT22;10667;51.056;3.732;2022-10-16T16:36:54;19.20;99.90
21019;DHT22;10667;51.056;3.732;2022-10-16T16:39:21;19.20;99.90
21019;DHT22;10667;51.056;3.732;2022-10-16T16:41:47;19.20;99.90
21019;DHT22;10667;51.056;3.732;2022-10-16T16:44:14;19.20;99.90
21019;DHT22;10667;51.056;3.732;2022-10-16T16:46:41;19.20;99.90
21019;DHT22;10667;51.056;3.732;2022-10-16T16:49:12;19.20;99.90
21019;DHT22;10667;51.056;3.732;2022-10-16T16:51:38;19.20;99.90
21019;DHT22;10667;51.056;3.732;2022-10-16T16:54:04;19.30;99.90
21019;DHT22;10667;51.056;3.732;2022-10-16T16:56:30;19.30;99.90
21019;DHT22;10667;51.056;3.732;2022-10-16T16:58:56;19.40;99.90
21019;DHT22;10667;51.056;3.732;2022-10-16T17:01:23;19.50;99.90
21019;DHT22;10667;51.056;3.732;2022-10-16T17:03:51;19.50;99.90
21019;DHT22;10667;51.056;3.732;2022-10-16T17:06:18;19.50;99.90
21019;DHT22;10667;51.056;3.732;2022-10-16T17:08:44;19.40;99.90
21019;DHT22;10667;51.056;3.732;2022-10-16T17:11:15;19.40;99.90
21019;DHT22;10667;51.056;3.732;2022-10-16T17:13:41;19.50;99.90
21019;DHT22;10667;51.056;3.732;2022-10-16T17:16:08;19.40;99.90
21019;DHT22;10667;51.056;3.732;2022-10-16T17:18:34;19.40;99.90
21019;DHT22;10667;51.056;3.732;2022-10-16T17:21:02;19.40;99.90
21019;DHT22;10667;51.056;3.732;2022-10-16T17:23:29;19.30;99.90
21019;DHT22;10667;51.056;3.732;2022-10-16T17:25:55;19.30;99.90
21019;DHT22;10667;51.056;3.732;2022-10-16T17:28:21;19.30;99.90
21019;DHT22;10667;51.056;3.732;2022-10-16T17:30:46;19.30;99.90
21019;DHT22;10667;51.056;3.732;2022-10-16T17:33:12;19.30;99.90
21019;DHT22;10667;51.056;3.732;2022-10-16T17:35:43;19.20;99.90
21019;DHT22;10667;51.056;3.732;2022-10-16T17:38:11;19.20;99.90
21019;DHT22;10667;51.056;3.732;2022-10-16T17:40:37;19.10;99.90
21019;DHT22;10667;51.056;3.732;2022-10-16T17:43:03;19.10;99.90
21019;DHT22;10667;51.056;3.732;2022-10-16T17:45:29;19.10;99.90
21019;DHT22;10667;51.056;3.732;2022-10-16T17:47:55;19.00;99.90